Time;durP1;ratioP1;P1;durP2;ratioP2;P2;SDS_P1;SDS_P2;PMS_P1;PMS_P2;Temp;Humidity;BMP_temperature;BMP_pressure;BME280_temperature;BME280_humidity;BME280_pressure;Samples;Min_cycle;Max_cycle;Signal;HPM_P1;HPM_P2
2023/12/08 00:00:55;;;;;;;3.15;1.98;;;;;;;4.73;82.08;99773.56;3157197;28;20419;-75
2023/12/08 00:02:28;;;;;;;3.78;2.05;;;;;;;4.72;82.06;99772.72;3162790;28;20047;-75
2023/12/08 00:03:58;;;;;;;7.10;2.30;;;;;;;4.69;81.94;99775.38;3156572;28;20052;-74
2023/12/08 00:05:30;;;;;;;4.63;2.15;;;;;;;4.70;81.95;99774.50;3158211;28;20516;-74
2023/12/08 00:07:01;;;;;;;4.40;2.38;;;;;;;4.70;82.13;99774.50;3168118;28;20070;-75
2023/12/08 00:08:32;;;;;;;4.35;2.42;;;;;;;4.70;81.98;99776.22;3162748;28;20048;-75
2023/12/08 00:10:04;;;;;;;3.22;1.90;;;;;;;4.69;82.04;99775.38;3160029;28;20486;-75
2023/12/08 00:11:37;;;;;;;3.50;2.20;;;;;;;4.59;81.97;99760.16;3167220;28;20124;-75
2023/12/08 00:13:08;;;;;;;3.38;1.95;;;;;;;4.70;82.04;99783.97;3167864;28;20161;-75
2023/12/08 00:14:40;;;;;;;3.85;2.35;;;;;;;4.68;82.08;99780.59;3166227;28;20461;-75
2023/12/08 00:16:10;;;;;;;3.97;2.45;;;;;;;4.70;81.92;99776.22;3160688;28;20075;-74
2023/12/08 00:17:43;;;;;;;4.00;2.40;;;;;;;4.67;81.97;99769.38;3168550;28;20421;-74
2023/12/08 00:19:14;;;;;;;4.13;2.00;;;;;;;4.65;81.95;99776.34;3169803;28;20090;-74
2023/12/08 00:20:46;;;;;;;3.28;1.88;;;;;;;4.68;82.10;99770.28;3170201;28;20054;-74
2023/12/08 00:22:17;;;;;;;5.13;2.55;;;;;;;4.67;82.05;99777.13;3168383;28;20141;-75
2023/12/08 00:23:49;;;;;;;3.72;1.98;;;;;;;4.67;82.11;99774.56;3167660;28;20059;-74
2023/12/08 00:25:19;;;;;;;4.32;2.38;;;;;;;4.69;81.99;99775.38;3169894;28;20058;-74
2023/12/08 00:26:51;;;;;;;4.15;2.60;;;;;;;4.66;81.80;99767.72;3161205;28;20488;-73
2023/12/08 00:28:22;;;;;;;4.53;2.60;;;;;;;4.74;81.67;99783.03;3168464;28;20509;-74
2023/12/08 00:29:53;;;;;;;5.53;2.60;;;;;;;4.71;81.12;99778.78;3159245;28;20063;-72
2023/12/08 00:31:24;;;;;;;4.00;2.65;;;;;;;4.68;81.37;99778.00;3157504;28;20468;-74
2023/12/08 00:32:57;;;;;;;5.07;2.65;;;;;;;4.67;81.42;99782.28;3166474;28;20055;-73
2023/12/08 00:34:28;;;;;;;4.07;2.53;;;;;;;4.64;81.44;99787.50;3168702;28;20055;-73
2023/12/08 00:36:00;;;;;;;4.70;2.55;;;;;;;4.65;81.26;99785.81;3162977;28;20692;-73
2023/12/08 00:37:30;;;;;;;4.55;2.90;;;;;;;4.65;81.23;99781.50;3162811;28;20082;-73
2023/12/08 00:39:02;;;;;;;5.53;3.00;;;;;;;4.64;81.34;99774.63;3168612;28;20056;-73
2023/12/08 00:40:33;;;;;;;4.45;2.83;;;;;;;4.65;81.53;99773.75;3169215;28;20069;-73
2023/12/08 00:42:05;;;;;;;4.35;2.75;;;;;;;4.64;81.64;99768.63;3162235;28;20130;-73
2023/12/08 00:43:35;;;;;;;4.53;2.42;;;;;;;4.58;81.59;99767.00;3167371;28;20054;-73
2023/12/08 00:45:08;;;;;;;4.28;2.67;;;;;;;4.62;81.39;99766.09;3169546;28;20400;-74
2023/12/08 00:46:38;;;;;;;4.53;2.63;;;;;;;4.57;81.41;99765.31;3168951;28;20485;-73
2023/12/08 00:48:11;;;;;;;6.80;3.30;;;;;;;4.69;81.24;99775.38;3169024;28;20055;-78
2023/12/08 00:49:42;;;;;;;5.30;2.70;;;;;;;4.66;81.03;99775.44;3168537;28;20052;-77
2023/12/08 00:51:14;;;;;;;4.97;2.60;;;;;;;4.64;81.12;99779.78;3169474;28;20051;-78
2023/12/08 00:52:45;;;;;;;6.05;3.22;;;;;;;4.63;80.95;99783.25;3167146;28;20048;-77
2023/12/08 00:54:16;;;;;;;5.50;3.03;;;;;;;4.64;81.09;99784.94;3167236;28;20531;-76
2023/12/08 00:55:47;;;;;;;4.57;2.88;;;;;;;4.61;81.03;99776.41;3168142;28;20055;-77
2023/12/08 00:57:19;;;;;;;4.25;2.72;;;;;;;4.63;80.89;99783.25;3157276;28;20090;-77
2023/12/08 00:58:50;;;;;;;3.78;2.45;;;;;;;4.65;80.74;99784.06;3162828;28;20075;-77
2023/12/08 01:00:21;;;;;;;7.00;3.80;;;;;;;4.65;80.96;99785.81;3165792;28;20051;-77
2023/12/08 01:01:52;;;;;;;5.78;2.90;;;;;;;4.66;80.54;99788.34;3163378;28;20055;-76
2023/12/08 01:03:25;;;;;;;7.60;2.95;;;;;;;4.65;80.19;99791.81;3161910;28;20043;-77
2023/12/08 01:04:56;;;;;;;5.32;2.78;;;;;;;4.62;80.33;99786.72;3167995;28;20071;-77
2023/12/08 01:06:28;;;;;;;4.55;2.83;;;;;;;4.64;80.40;99786.66;3165242;28;20040;-77
2023/12/08 01:08:00;;;;;;;4.00;2.47;;;;;;;4.64;80.49;99786.66;3156248;28;20048;-75
2023/12/08 01:09:30;;;;;;;4.78;2.67;;;;;;;4.64;80.31;99789.25;3162066;28;20077;-78
2023/12/08 01:11:02;;;;;;;4.10;2.42;;;;;;;4.66;79.94;99787.50;3167171;28;20468;-73
2023/12/08 01:12:33;;;;;;;4.50;2.47;;;;;;;4.63;79.89;99785.81;3157041;28;20044;-73
2023/12/08 01:14:04;;;;;;;3.88;2.42;;;;;;;4.64;80.03;99792.66;3169158;28;20054;-73
2023/12/08 01:15:35;;;;;;;5.70;2.65;;;;;;;4.65;79.90;99788.38;3166834;28;20058;-73
2023/12/08 01:17:07;;;;;;;4.97;2.70;;;;;;;4.65;79.86;99784.06;3168497;28;20040;-73
2023/12/08 01:18:39;;;;;;;4.35;2.42;;;;;;;4.67;79.97;99790.03;3169245;28;20079;-73
2023/12/08 01:20:11;;;;;;;4.55;2.85;;;;;;;4.67;79.87;99792.59;3167884;28;20643;-73
2023/12/08 01:21:42;;;;;;;5.57;2.67;;;;;;;4.70;79.57;99794.28;3168390;28;20074;-72
2023/12/08 01:23:14;;;;;;;4.97;2.75;;;;;;;4.69;79.65;99783.13;3166182;28;20440;-73
2023/12/08 01:24:44;;;;;;;4.07;2.47;;;;;;;4.70;79.24;99783.97;3162646;28;20086;-73
2023/12/08 01:26:16;;;;;;;5.80;2.85;;;;;;;4.71;79.43;99786.53;3168143;28;20051;-74
2023/12/08 01:27:47;;;;;;;4.15;2.75;;;;;;;4.70;79.14;99781.38;3168768;28;20043;-72
2023/12/08 01:29:18;;;;;;;5.68;2.83;;;;;;;4.73;79.25;99784.75;3167204;28;20095;-72
2023/12/08 01:30:49;;;;;;;3.63;2.22;;;;;;;4.76;79.07;99789.84;3165447;28;20059;-72
2023/12/08 01:32:21;;;;;;;6.53;2.92;;;;;;;4.76;78.98;99784.69;3165298;28;20459;-72
2023/12/08 01:33:53;;;;;;;6.38;3.28;;;;;;;4.76;78.97;99779.53;3158976;28;20087;-71
2023/12/08 01:35:25;;;;;;;5.35;2.88;;;;;;;4.78;78.87;99776.91;3168091;28;20058;-73
2023/12/08 01:36:55;;;;;;;5.70;3.33;;;;;;;4.81;78.89;99776.84;3168184;28;20453;-72
2023/12/08 01:38:28;;;;;;;6.05;3.05;;;;;;;4.83;78.73;99784.56;3168892;28;20051;-71
2023/12/08 01:39:59;;;;;;;7.88;3.45;;;;;;;4.83;78.54;99789.72;3160270;28;20444;-71
2023/12/08 01:41:30;;;;;;;5.25;3.10;;;;;;;4.83;78.65;99785.41;3168508;28;20053;-71
2023/12/08 01:43:02;;;;;;;5.13;2.80;;;;;;;4.84;78.42;99779.34;3168446;28;20083;-72
2023/12/08 01:44:35;;;;;;;5.57;2.83;;;;;;;4.85;78.30;99781.06;3158564;28;20464;-72
2023/12/08 01:46:07;;;;;;;5.55;3.15;;;;;;;4.86;78.22;99780.19;3165212;28;20055;-73
2023/12/08 01:47:40;;;;;;;4.75;3.25;;;;;;;4.87;78.18;99775.84;3165825;28;20169;-73
2023/12/08 01:49:13;;;;;;;;;;;;;;;4.76;78.11;99781.25;3161013;28;20581;-72
2023/12/08 01:50:44;;;;;;;4.90;2.80;;;;;;;4.80;78.05;99780.31;3157755;28;19947;-71
2023/12/08 01:52:22;;;;;;;5.40;3.03;;;;;;;4.86;77.91;99779.34;3166330;28;20158;-72
2023/12/08 01:53:54;;;;;;;5.13;2.63;;;;;;;4.87;78.13;99776.69;3166690;28;20044;-75
2023/12/08 01:55:26;;;;;;;5.75;3.33;;;;;;;4.86;77.73;99774.19;3167245;28;20059;-74
2023/12/08 01:56:58;;;;;;;4.88;3.03;;;;;;;4.89;77.55;99779.25;3163905;28;20058;-72
2023/12/08 01:58:30;;;;;;;6.18;2.88;;;;;;;4.91;77.51;99787.78;3167812;28;20048;-72
2023/12/08 02:00:00;;;;;;;5.63;3.10;;;;;;;4.92;76.90;99787.78;3164877;28;20560;-71
2023/12/08 02:01:32;;;;;;;5.28;2.95;;;;;;;4.88;76.75;99770.69;3166389;28;20047;-72
2023/12/08 02:03:03;;;;;;;4.65;2.72;;;;;;;4.91;76.63;99783.50;3165946;28;20086;-71
2023/12/08 02:04:36;;;;;;;4.50;2.67;;;;;;;4.91;76.46;99778.34;3169051;28;20132;-71
2023/12/08 02:06:10;;;;;;;5.15;2.63;;;;;;;4.94;76.23;99782.56;3169126;28;20516;-71
2023/12/08 02:07:43;;;;;;;5.22;2.97;;;;;;;4.92;76.18;99785.19;3168061;28;20058;-70
2023/12/08 02:09:15;;;;;;;4.75;3.25;;;;;;;4.90;75.85;99783.53;3164268;28;20524;-71
2023/12/08 02:10:47;;;;;;;5.15;3.00;;;;;;;4.90;76.21;99780.94;3164786;28;20056;-71
2023/12/08 02:12:18;;;;;;;5.82;3.50;;;;;;;4.91;76.12;99778.34;3161841;28;20055;-70
2023/12/08 02:13:49;;;;;;;6.03;3.38;;;;;;;4.16;76.09;99656.19;3165820;28;20059;-70
2023/12/08 02:15:22;;;;;;;5.47;3.10;;;;;;;4.88;76.16;99780.13;3169360;28;20047;-70
2023/12/08 02:16:55;;;;;;;5.72;3.13;;;;;;;4.93;76.11;99780.88;3157941;28;20127;-69
2023/12/08 02:18:29;;;;;;;5.70;3.10;;;;;;;4.88;75.86;99778.41;3167159;28;20056;-71
2023/12/08 02:20:03;;;;;;;;;;;;;;;4.73;76.13;99787.34;3168103;28;20087;-70
2023/12/08 02:21:35;;;;;;;9.15;3.50;;;;;;;4.76;76.48;99788.97;3163588;28;19920;-70
2023/12/08 02:23:07;;;;;;;5.35;3.30;;;;;;;4.80;76.33;99785.47;3165182;28;20087;-70
2023/12/08 02:24:39;;;;;;;6.10;3.55;;;;;;;4.81;76.28;99786.31;3169756;28;20607;-70
2023/12/08 02:26:11;;;;;;;6.18;3.42;;;;;;;4.82;76.33;99788.00;3165994;28;20140;-69
2023/12/08 02:27:42;;;;;;;6.45;3.33;;;;;;;4.82;76.08;99790.59;3163605;28;20539;-70
2023/12/08 02:29:14;;;;;;;6.70;3.53;;;;;;;4.79;76.28;99788.91;3169581;28;20138;-70
2023/12/08 02:30:44;;;;;;;6.45;3.10;;;;;;;4.78;76.31;99788.06;3167009;28;20076;-73
2023/12/08 02:32:26;;;;;;;7.20;3.90;;;;;;;4.79;76.34;99791.50;3165766;28;20284;-73
2023/12/08 02:33:59;;;;;;;6.30;3.75;;;;;;;4.82;76.46;99788.84;3162122;28;20094;-73
2023/12/08 02:35:35;;;;;;;7.17;3.73;;;;;;;4.82;76.38;99791.44;3165718;28;20075;-71
2023/12/08 02:37:08;;;;;;;6.93;3.72;;;;;;;4.78;76.28;99792.38;3163437;28;20325;-71
2023/12/08 02:38:41;;;;;;;5.28;3.30;;;;;;;4.77;76.58;99783.81;3159393;28;20469;-72
2023/12/08 02:40:13;;;;;;;6.88;3.88;;;;;;;4.78;76.58;99789.81;3165271;28;20150;-71
2023/12/08 02:41:45;;;;;;;6.13;3.60;;;;;;;4.75;76.58;99788.13;3165764;28;20060;-72
2023/12/08 02:43:16;;;;;;;6.60;3.88;;;;;;;4.76;76.62;99784.69;3154098;28;20098;-71
2023/12/08 02:44:48;;;;;;;7.45;3.97;;;;;;;4.77;76.51;99791.53;3165563;28;20059;-73
2023/12/08 02:46:19;;;;;;;8.07;3.88;;;;;;;4.75;76.32;99788.13;3164888;28;20550;-73
2023/12/08 02:47:51;;;;;;;8.57;4.25;;;;;;;4.77;76.53;99788.97;3153997;28;20159;-73
2023/12/08 02:49:21;;;;;;;7.15;4.63;;;;;;;4.81;76.25;99799.22;3158843;28;20066;-74
2023/12/08 02:50:53;;;;;;;7.65;3.97;;;;;;;4.78;76.54;99794.97;3165216;28;20048;-72
2023/12/08 02:52:24;;;;;;;8.52;4.00;;;;;;;4.81;76.34;99796.63;3156839;28;20456;-74
2023/12/08 02:53:56;;;;;;;7.15;4.20;;;;;;;4.78;76.69;99793.22;3164979;28;20043;-73
2023/12/08 02:55:29;;;;;;;7.63;3.85;;;;;;;4.80;76.26;99790.63;3164244;28;20052;-72
2023/12/08 02:57:00;;;;;;;10.18;4.95;;;;;;;4.79;76.30;99794.94;3160254;28;20097;-74
2023/12/08 02:58:31;;;;;;;6.82;4.03;;;;;;;4.78;76.44;99797.56;3158572;28;20106;-74
2023/12/08 03:00:03;;;;;;;8.05;4.28;;;;;;;4.78;76.47;99792.38;3160721;28;20604;-75
2023/12/08 03:01:35;;;;;;;10.10;4.72;;;;;;;4.81;76.48;99796.63;3163762;28;20051;-74
2023/12/08 03:03:06;;;;;;;7.25;4.15;;;;;;;4.79;76.45;99797.53;3161713;28;20056;-74
2023/12/08 03:04:38;;;;;;;8.93;4.70;;;;;;;4.79;76.72;99797.53;3155656;28;20055;-75
2023/12/08 03:06:09;;;;;;;7.20;3.97;;;;;;;4.74;76.56;99789.03;3164350;28;20059;-74
2023/12/08 03:07:41;;;;;;;7.85;4.38;;;;;;;4.79;76.81;99800.09;3159835;28;20120;-74
2023/12/08 03:09:12;;;;;;;8.70;4.70;;;;;;;4.78;76.66;99794.97;3155061;28;20095;-74
2023/12/08 03:10:45;;;;;;;9.05;4.60;;;;;;;4.72;76.77;99779.63;3159709;28;20549;-73
2023/12/08 03:12:15;;;;;;;7.90;4.72;;;;;;;4.76;76.94;99797.59;3164980;28;20078;-73
2023/12/08 03:13:47;;;;;;;7.70;4.60;;;;;;;4.75;76.94;99795.03;3153536;28;20056;-73
2023/12/08 03:15:19;;;;;;;7.97;4.43;;;;;;;4.72;77.01;99795.94;3156970;28;20522;-71
2023/12/08 03:16:50;;;;;;;8.55;4.55;;;;;;;4.73;77.27;99795.09;3164597;28;20052;-76
2023/12/08 03:18:22;;;;;;;8.38;4.63;;;;;;;4.74;77.16;99801.94;3164985;28;20108;-75
2023/12/08 03:19:52;;;;;;;6.85;4.05;;;;;;;4.73;77.29;99797.66;3165744;28;20047;-75
2023/12/08 03:21:25;;;;;;;8.70;4.82;;;;;;;4.27;77.12;99725.56;3163282;28;20138;-74
2023/12/08 03:22:56;;;;;;;9.50;5.40;;;;;;;4.71;77.19;99791.69;3162766;28;20044;-72
2023/12/08 03:24:28;;;;;;;8.40;4.78;;;;;;;4.75;77.03;99795.03;3165541;28;20134;-73
2023/12/08 03:26:00;;;;;;;7.93;4.47;;;;;;;4.72;77.30;99803.69;3161999;28;20155;-73
2023/12/08 03:27:32;;;;;;;9.45;5.63;;;;;;;4.71;77.37;99798.56;3163139;28;20085;-73
2023/12/08 03:29:03;;;;;;;7.03;4.72;;;;;;;4.64;77.28;99789.25;3162594;28;20457;-72
2023/12/08 03:30:34;;;;;;;8.68;4.70;;;;;;;4.71;77.38;99798.56;3152971;28;20064;-73
2023/12/08 03:32:06;;;;;;;8.00;4.65;;;;;;;4.71;77.40;99789.09;3163168;28;20052;-73
2023/12/08 03:33:38;;;;;;;10.23;4.82;;;;;;;4.73;77.27;99796.78;3164867;28;20051;-72
2023/12/08 03:35:09;;;;;;;7.88;4.53;;;;;;;4.76;77.11;99807.03;3165654;28;20447;-72
2023/12/08 03:36:41;;;;;;;7.68;4.43;;;;;;;4.75;77.10;99800.19;3165505;28;20048;-73
2023/12/08 03:38:11;;;;;;;7.90;4.63;;;;;;;4.73;76.83;99802.81;3164279;28;20109;-74
2023/12/08 03:39:44;;;;;;;9.23;5.22;;;;;;;4.73;76.97;99800.25;3155298;28;20516;-74
2023/12/08 03:41:16;;;;;;;7.55;4.47;;;;;;;4.72;77.16;99792.53;3161053;28;20154;-71
2023/12/08 03:42:48;;;;;;;8.52;4.75;;;;;;;4.69;77.00;99793.44;3164697;28;20513;-71
2023/12/08 03:44:19;;;;;;;11.23;5.15;;;;;;;4.71;77.05;99799.41;3156902;28;20052;-73
2023/12/08 03:45:51;;;;;;;11.07;4.40;;;;;;;4.72;77.01;99795.09;3154725;28;20499;-74
2023/12/08 03:47:21;;;;;;;8.45;5.00;;;;;;;4.71;76.89;99786.53;3164454;28;20075;-73
2023/12/08 03:48:53;;;;;;;8.20;4.65;;;;;;;4.74;76.79;99785.59;3164879;28;20047;-73
2023/12/08 03:50:24;;;;;;;10.50;5.50;;;;;;;4.74;76.51;99788.19;3160668;28;20886;-73
2023/12/08 03:51:56;;;;;;;7.57;4.40;;;;;;;4.68;76.38;99778.00;3159754;28;20051;-73
2023/12/08 03:53:27;;;;;;;8.25;4.50;;;;;;;4.70;76.44;99782.25;3164472;28;20051;-73
2023/12/08 03:54:58;;;;;;;6.72;3.88;;;;;;;4.47;75.99;99745.78;3165096;28;20060;-74
2023/12/08 03:56:30;;;;;;;7.95;4.43;;;;;;;4.74;76.10;99785.59;3164448;28;20059;-75
2023/12/08 03:58:02;;;;;;;9.35;5.53;;;;;;;4.72;76.10;99785.63;3162863;28;20583;-73
2023/12/08 03:59:34;;;;;;;6.95;4.15;;;;;;;4.74;76.09;99785.59;3163266;28;20130;-72
2023/12/08 04:01:05;;;;;;;10.48;5.38;;;;;;;4.74;76.15;99781.28;3164812;28;20059;-73
2023/12/08 04:02:37;;;;;;;8.07;4.70;;;;;;;4.70;75.79;99777.09;3157636;28;20067;-72
2023/12/08 04:04:10;;;;;;;8.60;4.60;;;;;;;4.76;75.72;99789.84;3164011;28;20637;-74
2023/12/08 04:05:41;;;;;;;9.52;5.03;;;;;;;4.75;75.59;99784.72;3156024;28;20105;-73
2023/12/08 04:07:12;;;;;;;7.80;4.28;;;;;;;4.75;75.60;99789.88;3155769;28;20056;-72
2023/12/08 04:08:44;;;;;;;8.73;4.45;;;;;;;4.75;75.49;99782.97;3162683;28;20065;-73
2023/12/08 04:10:15;;;;;;;12.02;4.85;;;;;;;4.72;75.80;99783.06;3163961;28;20106;-72
2023/12/08 04:11:48;;;;;;;8.05;4.60;;;;;;;4.79;75.47;99786.34;3152489;28;20044;-75
2023/12/08 04:13:20;;;;;;;10.63;5.10;;;;;;;4.77;75.59;99785.53;3158055;28;20414;-75
2023/12/08 04:14:51;;;;;;;8.93;4.90;;;;;;;4.78;75.43;99789.81;3161620;28;20638;-72
2023/12/08 04:16:23;;;;;;;8.43;4.72;;;;;;;4.78;75.49;99782.06;3158142;28;20044;-72
2023/12/08 04:17:53;;;;;;;9.05;5.18;;;;;;;4.77;75.36;99791.53;3152726;28;20091;-72
2023/12/08 04:19:25;;;;;;;12.25;5.50;;;;;;;4.81;75.26;99796.63;3163758;28;20060;-72
2023/12/08 04:20:56;;;;;;;10.15;5.47;;;;;;;4.82;75.59;99794.00;3164515;28;20048;-73
2023/12/08 04:22:28;;;;;;;10.63;5.88;;;;;;;4.84;75.50;99791.41;3163374;28;20059;-72
2023/12/08 04:23:59;;;;;;;9.73;5.32;;;;;;;4.84;75.47;99786.25;3159286;28;20845;-71
2023/12/08 04:25:30;;;;;;;9.10;5.57;;;;;;;4.53;75.37;99733.59;3163588;28;20520;-74
2023/12/08 04:27:04;;;;;;;10.20;5.70;;;;;;;4.87;75.25;99792.19;3152616;28;20052;-74
2023/12/08 04:28:34;;;;;;;;;;;;;;;4.76;75.23;99792.44;3156232;28;20048;-73
2023/12/08 04:30:07;;;;;;;11.68;5.60;;;;;;;4.79;75.55;99789.78;3167125;28;20365;-76
2023/12/08 04:31:38;;;;;;;10.10;4.93;;;;;;;4.81;75.17;99794.06;3165095;28;20055;-73
2023/12/08 04:33:10;;;;;;;10.20;5.07;;;;;;;4.84;75.23;99796.56;3164128;28;20054;-73
2023/12/08 04:34:40;;;;;;;10.27;5.55;;;;;;;4.83;75.21;99795.72;3168951;28;20098;-76
2023/12/08 04:36:12;;;;;;;9.07;4.88;;;;;;;4.86;74.92;99798.25;3168492;28;20097;-77
2023/12/08 04:37:43;;;;;;;11.05;5.60;;;;;;;4.86;75.01;99797.41;3169505;28;20080;-74
2023/12/08 04:39:14;;;;;;;13.30;5.82;;;;;;;4.88;74.88;99798.19;3169557;28;20047;-77
2023/12/08 04:40:45;;;;;;;11.57;5.70;;;;;;;4.79;74.75;99778.59;3167282;28;20070;-76
2023/12/08 04:42:18;;;;;;;13.13;5.97;;;;;;;4.87;74.84;99791.34;3165549;28;20054;-76
2023/12/08 04:43:49;;;;;;;11.45;5.97;;;;;;;4.86;74.79;99797.41;3157170;28;20086;-73
2023/12/08 04:45:21;;;;;;;12.23;6.50;;;;;;;4.87;74.84;99797.34;3166536;28;20048;-68
2023/12/08 04:46:52;;;;;;;12.50;6.70;;;;;;;4.89;74.96;99803.34;3168390;28;20494;-68
2023/12/08 04:48:23;;;;;;;10.52;6.47;;;;;;;4.90;75.03;99796.44;3169724;28;20181;-68
2023/12/08 04:49:54;;;;;;;9.30;6.10;;;;;;;4.58;74.63;99746.38;3163923;28;20447;-67
2023/12/08 04:51:26;;;;;;;11.82;6.00;;;;;;;4.89;74.57;99800.75;3168941;28;20051;-67
2023/12/08 04:52:57;;;;;;;9.55;5.28;;;;;;;4.92;74.60;99797.25;3161107;28;20044;-66
2023/12/08 04:54:28;;;;;;;8.50;5.72;;;;;;;4.90;74.46;99799.84;3157334;28;20075;-67
2023/12/08 04:55:59;;;;;;;10.45;5.50;;;;;;;4.90;74.54;99796.44;3162655;28;20759;-67
2023/12/08 04:57:32;;;;;;;8.13;5.22;;;;;;;4.93;74.39;99799.78;3168451;28;20074;-68
2023/12/08 04:59:03;;;;;;;7.95;4.40;;;;;;;4.89;74.35;99793.00;3169663;28;20044;-67
2023/12/08 05:00:35;;;;;;;11.70;6.32;;;;;;;4.87;74.28;99778.44;3167347;28;20086;-67
2023/12/08 05:02:05;;;;;;;11.02;5.63;;;;;;;4.85;74.25;99793.09;3166327;28;20431;-67
2023/12/08 05:03:37;;;;;;;10.07;5.80;;;;;;;4.92;74.07;99795.53;3168435;28;20048;-66
2023/12/08 05:05:08;;;;;;;9.75;5.63;;;;;;;4.90;74.14;99801.59;3165964;28;20074;-70
2023/12/08 05:06:40;;;;;;;10.15;5.63;;;;;;;4.90;74.12;99805.03;3160781;28;20040;-72
2023/12/08 05:08:10;;;;;;;10.32;6.07;;;;;;;4.90;74.16;99805.03;3164183;28;20059;-73
2023/12/08 05:09:42;;;;;;;11.30;6.55;;;;;;;4.67;74.21;99768.53;3168375;28;20067;-74
2023/12/08 05:11:13;;;;;;;11.27;5.72;;;;;;;4.91;74.36;99808.44;3163777;28;20048;-75
2023/12/08 05:12:48;;;;;;;11.02;5.97;;;;;;;4.87;73.98;99796.50;3158443;28;20044;-68
2023/12/08 05:14:19;;;;;;;11.65;6.20;;;;;;;4.91;74.05;99804.16;3167906;28;20503;-72
2023/12/08 05:15:51;;;;;;;11.65;6.03;;;;;;;4.94;74.17;99808.38;3166421;28;20043;-74
2023/12/08 05:17:21;;;;;;;12.48;6.10;;;;;;;4.93;74.14;99812.69;3159490;28;20090;-76
2023/12/08 05:18:53;;;;;;;12.82;6.53;;;;;;;4.91;74.07;99801.56;3167480;28;20044;-69
2023/12/08 05:20:24;;;;;;;11.02;5.57;;;;;;;4.94;74.04;99804.09;3167053;28;20048;-71
2023/12/08 05:21:56;;;;;;;10.48;6.20;;;;;;;4.92;73.97;99797.25;3163786;28;20215;-76
2023/12/08 05:23:27;;;;;;;15.13;7.60;;;;;;;4.95;74.17;99804.94;3165941;28;20436;-76
2023/12/08 05:24:58;;;;;;;20.17;10.65;;;;;;;5.01;73.86;99794.47;3168190;28;20055;-70
2023/12/08 05:26:30;;;;;;;21.92;9.55;;;;;;;5.01;73.89;99800.47;3167879;28;20051;-68
2023/12/08 05:28:03;;;;;;;16.60;7.68;;;;;;;5.03;73.70;99803.03;3156382;28;20071;-73
2023/12/08 05:29:34;;;;;;;;;;;;;;;4.92;73.98;99805.00;3168378;28;20094;-73
2023/12/08 05:31:06;;;;;;;13.73;6.75;;;;;;;5.00;73.85;99809.13;3166462;28;19931;-73
2023/12/08 05:32:37;;;;;;;13.80;7.60;;;;;;;5.05;73.84;99803.81;3162567;28;20086;-73
2023/12/08 05:34:09;;;;;;;12.48;7.25;;;;;;;4.41;73.64;99694.31;3164621;28;20079;-66
2023/12/08 05:35:39;;;;;;;13.68;7.47;;;;;;;5.11;73.45;99798.53;3166590;28;20082;-68
2023/12/08 05:37:11;;;;;;;13.73;6.82;;;;;;;5.12;73.54;99807.16;3169311;28;20048;-63
2023/12/08 05:38:42;;;;;;;12.77;6.60;;;;;;;5.11;73.17;99814.00;3161646;28;20063;-65
2023/12/08 05:40:14;;;;;;;12.82;6.68;;;;;;;5.08;73.16;99811.50;3162419;28;20047;-66
2023/12/08 05:41:46;;;;;;;11.77;6.82;;;;;;;5.08;73.21;99813.25;3167535;28;20059;-68
2023/12/08 05:43:18;;;;;;;12.45;6.80;;;;;;;5.10;73.26;99819.22;3166798;28;20056;-68
2023/12/08 05:44:50;;;;;;;12.48;6.85;;;;;;;5.07;73.17;99821.88;3165125;28;20129;-68
2023/12/08 05:46:21;;;;;;;10.40;6.10;;;;;;;5.07;73.29;99817.56;3167816;28;20090;-70
2023/12/08 05:47:53;;;;;;;11.55;6.05;;;;;;;5.09;73.13;99817.50;3168635;28;20051;-68
2023/12/08 05:49:23;;;;;;;11.82;6.75;;;;;;;5.09;73.02;99828.72;3164007;28;20386;-67
2023/12/08 05:50:55;;;;;;;12.40;6.95;;;;;;;5.07;73.09;99822.72;3155728;28;20055;-72
2023/12/08 05:52:26;;;;;;;29.20;14.07;;;;;;;4.73;73.13;99763.25;3162346;28;20058;-70
2023/12/08 05:53:58;;;;;;;22.77;11.40;;;;;;;5.11;73.03;99816.59;3164672;28;20040;-72
2023/12/08 05:55:29;;;;;;;28.70;12.90;;;;;;;5.13;72.75;99821.75;3165987;28;20047;-72
2023/12/08 05:57:01;;;;;;;17.15;8.18;;;;;;;5.14;72.77;99810.53;3162761;28;20051;-79
2023/12/08 05:58:34;;;;;;;11.48;5.88;;;;;;;5.16;72.31;99812.19;3168660;28;20044;-67
2023/12/08 06:00:09;;;;;;;11.97;7.20;;;;;;;5.15;72.19;99818.25;3159823;28;20060;-68
2023/12/08 06:01:40;;;;;;;13.25;7.03;;;;;;;5.14;71.80;99818.25;3161849;28;20474;-67
2023/12/08 06:03:12;;;;;;;10.05;5.82;;;;;;;5.13;71.72;99820.00;3162207;28;20080;-73
2023/12/08 06:04:43;;;;;;;10.85;6.30;;;;;;;5.12;71.47;99820.91;3161172;28;20532;-68
2023/12/08 06:06:15;;;;;;;10.50;6.10;;;;;;;5.12;71.53;99817.47;3165182;28;20047;-72
2023/12/08 06:07:46;;;;;;;10.70;5.97;;;;;;;5.07;71.33;99820.13;3157703;28;20570;-70
2023/12/08 06:09:18;;;;;;;11.73;6.10;;;;;;;5.11;71.27;99824.34;3163523;28;20181;-66
2023/12/08 06:10:51;;;;;;;13.40;6.93;;;;;;;4.44;71.42;99713.19;3163559;28;20044;-68
2023/12/08 06:12:23;;;;;;;;;;;;;;;4.97;71.51;99837.56;3156629;28;20059;-68
2023/12/08 06:13:55;;;;;;;13.77;6.10;;;;;;;5.02;71.86;99832.28;3156119;28;20040;-74
2023/12/08 06:15:27;;;;;;;13.52;6.63;;;;;;;5.04;71.75;99835.69;3157474;28;20055;-69
2023/12/08 06:16:58;;;;;;;12.02;6.20;;;;;;;4.95;71.46;99817.84;3166035;28;20134;-70
2023/12/08 06:18:30;;;;;;;13.02;7.15;;;;;;;5.09;71.39;99845.91;3168539;28;20142;-70
2023/12/08 06:20:00;;;;;;;12.20;6.07;;;;;;;5.05;71.43;99841.69;3159536;28;20121;-67
2023/12/08 06:21:35;;;;;;;12.65;6.97;;;;;;;5.12;71.09;99854.44;3156040;28;20048;-67
2023/12/08 06:23:07;;;;;;;14.55;6.90;;;;;;;5.09;71.28;99851.06;3163110;28;20044;-66
2023/12/08 06:24:38;;;;;;;14.27;7.20;;;;;;;5.09;71.50;99854.53;3157383;28;20109;-70
2023/12/08 06:26:10;;;;;;;12.27;6.45;;;;;;;5.09;71.51;99849.34;3166084;28;20142;-65
2023/12/08 06:27:41;;;;;;;11.45;5.93;;;;;;;5.09;71.41;99851.94;3158643;28;20116;-71
2023/12/08 06:29:14;;;;;;;15.07;7.00;;;;;;;5.13;71.17;99857.88;3156465;28;20048;-64
2023/12/08 06:30:45;;;;;;;14.13;7.05;;;;;;;4.92;71.37;99829.06;3155685;28;20079;-64
2023/12/08 06:32:18;;;;;;;12.45;7.00;;;;;;;5.14;71.42;99867.31;3160724;28;20044;-69
2023/12/08 06:33:49;;;;;;;11.00;6.75;;;;;;;5.12;71.25;99867.34;3168026;28;20074;-70
2023/12/08 06:35:21;;;;;;;13.27;6.93;;;;;;;5.14;71.31;99872.47;3163806;28;20060;-70
2023/12/08 06:36:52;;;;;;;11.40;6.40;;;;;;;5.11;71.11;99867.38;3159552;28;20115;-66
2023/12/08 06:38:23;;;;;;;14.52;7.80;;;;;;;5.15;70.89;99872.44;3157860;28;20417;-73
2023/12/08 06:39:54;;;;;;;13.35;7.15;;;;;;;5.17;70.97;99872.41;3156115;28;20071;-67
2023/12/08 06:41:26;;;;;;;12.00;6.93;;;;;;;5.15;70.93;99875.03;3165631;28;20052;-68
2023/12/08 06:42:57;;;;;;;12.00;7.38;;;;;;;5.14;71.00;99870.72;3161984;28;20210;-69
2023/12/08 06:44:30;;;;;;;13.55;6.90;;;;;;;5.17;70.89;99874.97;3165434;28;20055;-68
2023/12/08 06:46:01;;;;;;;14.07;7.22;;;;;;;5.18;70.84;99863.78;3163486;28;20071;-67
2023/12/08 06:47:33;;;;;;;11.77;6.57;;;;;;;5.15;70.71;99861.28;3166229;28;20052;-68
2023/12/08 06:49:04;;;;;;;14.20;6.68;;;;;;;4.75;70.71;99808.78;3165829;28;20051;-67
2023/12/08 06:50:36;;;;;;;12.70;6.68;;;;;;;5.16;70.79;99871.56;3156015;28;20551;-66
2023/12/08 06:52:15;;;;;;;14.85;6.28;;;;;;;5.17;70.62;99874.97;3155367;28;20059;-69
2023/12/08 06:53:45;;;;;;;12.98;5.95;;;;;;;5.17;70.73;99869.81;3155408;28;20052;-68
2023/12/08 06:55:17;;;;;;;10.77;6.18;;;;;;;5.17;70.59;99877.56;3163228;28;20052;-67
2023/12/08 06:56:58;;;;;;;11.05;6.30;;;;;;;5.19;70.37;99871.50;3161235;28;20056;-67
2023/12/08 06:58:34;;;;;;;15.00;6.78;;;;;;;5.16;70.51;99865.56;3167460;28;20056;-66
2023/12/08 07:00:24;;;;;;;13.45;6.82;;;;;;;5.18;70.18;99864.63;3156055;28;20101;-66
2023/12/08 07:02:03;;;;;;;14.50;7.05;;;;;;;5.18;70.44;99874.13;3156574;28;20050;-68
2023/12/08 07:03:36;;;;;;;11.68;6.15;;;;;;;5.17;70.25;99875.84;3159329;28;20431;-68
2023/12/08 07:05:07;;;;;;;11.07;6.10;;;;;;;4.96;70.36;99832.44;3156067;28;20052;-66
2023/12/08 07:06:48;;;;;;;13.27;6.72;;;;;;;5.17;70.19;99875.84;3156160;28;20497;-69
2023/12/08 07:08:28;;;;;;;13.88;6.40;;;;;;;5.12;70.21;99861.34;3160080;28;20044;-69
2023/12/08 07:10:14;;;;;;;12.43;6.93;;;;;;;5.14;70.34;99886.22;3159319;28;20135;-67
2023/12/08 07:11:46;;;;;;;11.88;6.63;;;;;;;5.15;70.35;99875.03;3161962;28;20170;-69
2023/12/08 07:13:25;;;;;;;14.68;7.15;;;;;;;5.16;70.40;99870.72;3158492;28;20043;-69
2023/12/08 07:15:03;;;;;;;13.25;7.18;;;;;;;5.16;70.22;99874.13;3157599;28;20147;-71
2023/12/08 07:16:49;;;;;;;18.08;7.35;;;;;;;5.10;70.36;99863.94;3166502;28;20050;-69